sensor_id;sensor_type;location;lat;lon;timestamp;pressure;altitude;pressure_sealevel;temperature;humidity
63194;BME280;49289;51.670;5.624;2022-12-13T00:00:52;101418.61;;;1.36;56.27
63194;BME280;49289;51.670;5.624;2022-12-13T00:02:39;101414.23;;;1.39;56.37
63194;BME280;49289;51.670;5.624;2022-12-13T00:04:27;101428.59;;;1.52;56.24
63194;BME280;49289;51.670;5.624;2022-12-13T00:06:16;101409.98;;;1.43;56.38
63194;BME280;49289;51.670;5.624;2022-12-13T00:08:03;101430.92;;;1.55;56.44
63194;BME280;49289;51.670;5.624;2022-12-13T00:09:51;101432.66;;;1.61;56.21
63194;BME280;49289;51.670;5.624;2022-12-13T00:11:39;101427.08;;;1.52;56.40
63194;BME280;49289;51.670;5.624;2022-12-13T00:13:28;101417.36;;;1.36;56.39
63194;BME280;49289;51.670;5.624;2022-12-13T00:15:16;101433.94;;;1.47;56.32
63194;BME280;49289;51.670;5.624;2022-12-13T00:17:03;101433.23;;;1.47;56.32
63194;BME280;49289;51.670;5.624;2022-12-13T00:18:52;101426.81;;;1.47;56.24
63194;BME280;49289;51.670;5.624;2022-12-13T00:20:38;101428.28;;;1.54;56.18
63194;BME280;49289;51.670;5.624;2022-12-13T00:22:25;101436.56;;;1.48;56.23
63194;BME280;49289;51.670;5.624;2022-12-13T00:24:12;101425.14;;;1.55;56.10
63194;BME280;49289;51.670;5.624;2022-12-13T00:26:07;101427.52;;;1.50;56.16
63194;BME280;49289;51.670;5.624;2022-12-13T00:27:53;101430.63;;;1.38;56.20
63194;BME280;49289;51.670;5.624;2022-12-13T00:29:40;101430.13;;;1.39;56.21
63194;BME280;49289;51.670;5.624;2022-12-13T00:31:27;101427.73;;;1.32;56.16
63194;BME280;49289;51.670;5.624;2022-12-13T00:33:14;101415.45;;;1.27;56.20
63194;BME280;49289;51.670;5.624;2022-12-13T00:35:02;101410.41;;;1.28;56.16
63194;BME280;49289;51.670;5.624;2022-12-13T00:36:49;101412.06;;;1.27;56.20
63194;BME280;49289;51.670;5.624;2022-12-13T00:38:37;101408.55;;;1.17;56.10
63194;BME280;49289;51.670;5.624;2022-12-13T00:40:26;101426.13;;;1.34;56.45
63194;BME280;49289;51.670;5.624;2022-12-13T00:42:14;101423.11;;;1.41;56.25
63194;BME280;49289;51.670;5.624;2022-12-13T00:44:02;101405.16;;;1.29;56.23
63194;BME280;49289;51.670;5.624;2022-12-13T00:45:49;101395.17;;;1.35;56.03
63194;BME280;49289;51.670;5.624;2022-12-13T00:47:36;101417.67;;;1.46;56.02
63194;BME280;49289;51.670;5.624;2022-12-13T00:49:23;101402.38;;;1.31;56.21
63194;BME280;49289;51.670;5.624;2022-12-13T00:51:11;101419.22;;;1.49;56.08
63194;BME280;49289;51.670;5.624;2022-12-13T00:52:59;101424.53;;;1.41;56.19
63194;BME280;49289;51.670;5.624;2022-12-13T00:54:46;101423.57;;;1.43;55.90
63194;BME280;49289;51.670;5.624;2022-12-13T00:56:33;101423.37;;;1.37;56.05
63194;BME280;49289;51.670;5.624;2022-12-13T00:58:20;101426.37;;;1.38;55.95
63194;BME280;49289;51.670;5.624;2022-12-13T01:00:08;101423.12;;;1.37;55.96
63194;BME280;49289;51.670;5.624;2022-12-13T01:01:55;101404.67;;;1.21;56.14
63194;BME280;49289;51.670;5.624;2022-12-13T01:03:44;101423.60;;;1.37;55.97
63194;BME280;49289;51.670;5.624;2022-12-13T01:05:32;101400.58;;;1.27;55.93
63194;BME280;49289;51.670;5.624;2022-12-13T01:07:20;101397.64;;;1.25;55.77
63194;BME280;49289;51.670;5.624;2022-12-13T01:09:11;101418.62;;;1.38;55.79
63194;BME280;49289;51.670;5.624;2022-12-13T01:10:55;101417.30;;;1.31;55.99
63194;BME280;49289;51.670;5.624;2022-12-13T01:12:43;101415.63;;;1.29;55.96
63194;BME280;49289;51.670;5.624;2022-12-13T01:14:32;101403.10;;;1.15;55.99
63194;BME280;49289;51.670;5.624;2022-12-13T01:16:19;101402.79;;;1.17;55.99
63194;BME280;49289;51.670;5.624;2022-12-13T01:18:08;101424.31;;;1.28;55.81
63194;BME280;49289;51.670;5.624;2022-12-13T01:19:55;101420.62;;;1.22;55.99
63194;BME280;49289;51.670;5.624;2022-12-13T01:21:42;101400.56;;;1.04;56.07
63194;BME280;49289;51.670;5.624;2022-12-13T01:23:29;101423.87;;;1.20;55.96
63194;BME280;49289;51.670;5.624;2022-12-13T01:25:16;101418.73;;;1.20;55.99
63194;BME280;49289;51.670;5.624;2022-12-13T01:27:04;101408.69;;;1.20;55.67
63194;BME280;49289;51.670;5.624;2022-12-13T01:28:52;101401.84;;;1.08;55.72
63194;BME280;49289;51.670;5.624;2022-12-13T01:30:40;101398.73;;;1.06;55.77
63194;BME280;49289;51.670;5.624;2022-12-13T01:32:14;101421.82;;;1.16;55.84
63194;BME280;49289;51.670;5.624;2022-12-13T01:34:02;101422.07;;;1.17;55.71
63194;BME280;49289;51.670;5.624;2022-12-13T01:35:50;101419.80;;;1.18;55.79
63194;BME280;49289;51.670;5.624;2022-12-13T01:37:37;101413.20;;;1.17;55.68
63194;BME280;49289;51.670;5.624;2022-12-13T01:39:24;101413.95;;;1.11;55.85
63194;BME280;49289;51.670;5.624;2022-12-13T01:41:11;101398.21;;;1.00;55.95
63194;BME280;49289;51.670;5.624;2022-12-13T01:42:59;101407.36;;;1.03;55.87
63194;BME280;49289;51.670;5.624;2022-12-13T01:45:08;101405.72;;;0.92;55.95
63194;BME280;49289;51.670;5.624;2022-12-13T01:46:53;101423.00;;;1.09;56.08
63194;BME280;49289;51.670;5.624;2022-12-13T01:48:41;101419.78;;;1.11;56.06
63194;BME280;49289;51.670;5.624;2022-12-13T01:50:28;101417.66;;;1.09;56.16
63194;BME280;49289;51.670;5.624;2022-12-13T01:52:14;101398.80;;;1.01;56.15
63194;BME280;49289;51.670;5.624;2022-12-13T01:54:04;101404.34;;;1.04;56.02
63194;BME280;49289;51.670;5.624;2022-12-13T01:55:53;101397.97;;;0.94;56.07
63194;BME280;49289;51.670;5.624;2022-12-13T01:57:39;101415.41;;;1.06;55.92
63194;BME280;49289;51.670;5.624;2022-12-13T01:59:26;101395.20;;;0.87;56.31
63194;BME280;49289;51.670;5.624;2022-12-13T02:01:13;101412.87;;;0.98;56.24
63194;BME280;49289;51.670;5.624;2022-12-13T02:03:00;101413.42;;;0.97;56.29
63194;BME280;49289;51.670;5.624;2022-12-13T02:04:51;101403.09;;;0.95;56.26
63194;BME280;49289;51.670;5.624;2022-12-13T02:06:39;101398.83;;;0.86;56.30
63194;BME280;49289;51.670;5.624;2022-12-13T02:08:27;101419.92;;;0.96;56.39
63194;BME280;49289;51.670;5.624;2022-12-13T02:10:15;101401.31;;;0.92;56.25
63194;BME280;49289;51.670;5.624;2022-12-13T02:12:02;101421.35;;;1.04;56.10
63194;BME280;49289;51.670;5.624;2022-12-13T02:13:49;101397.87;;;0.94;56.17
63194;BME280;49289;51.670;5.624;2022-12-13T02:15:39;101417.89;;;1.02;56.27
63194;BME280;49289;51.670;5.624;2022-12-13T02:17:26;101401.41;;;0.98;56.17
63194;BME280;49289;51.670;5.624;2022-12-13T02:21:37;101401.27;;;0.91;56.17
63194;BME280;49289;51.670;5.624;2022-12-13T02:23:44;101404.27;;;0.91;56.23
63194;BME280;49289;51.670;5.624;2022-12-13T02:28:08;101396.73;;;0.86;56.23
63194;BME280;49289;51.670;5.624;2022-12-13T02:32:05;101397.95;;;0.96;56.07
63194;BME280;49289;51.670;5.624;2022-12-13T02:33:54;101396.27;;;0.93;56.17
63194;BME280;49289;51.670;5.624;2022-12-13T02:35:41;101398.91;;;0.93;56.16
63194;BME280;49289;51.670;5.624;2022-12-13T02:37:29;101415.03;;;1.08;56.21
63194;BME280;49289;51.670;5.624;2022-12-13T02:39:16;101412.59;;;1.12;56.17
63194;BME280;49289;51.670;5.624;2022-12-13T02:41:03;101410.25;;;1.05;56.17
63194;BME280;49289;51.670;5.624;2022-12-13T02:42:51;101405.17;;;1.05;56.23
63194;BME280;49289;51.670;5.624;2022-12-13T02:44:39;101385.02;;;0.99;56.16
63194;BME280;49289;51.670;5.624;2022-12-13T02:46:27;101388.12;;;1.00;56.17
63194;BME280;49289;51.670;5.624;2022-12-13T02:48:17;101384.77;;;0.98;56.27
63194;BME280;49289;51.670;5.624;2022-12-13T02:50:05;101383.13;;;1.03;56.14
63194;BME280;49289;51.670;5.624;2022-12-13T02:51:51;101398.84;;;1.12;56.29
63194;BME280;49289;51.670;5.624;2022-12-13T02:53:39;101383.22;;;0.99;56.42
63194;BME280;49289;51.670;5.624;2022-12-13T02:55:29;101375.55;;;0.93;56.37
63194;BME280;49289;51.670;5.624;2022-12-13T02:57:33;101399.05;;;1.07;56.37
63194;BME280;49289;51.670;5.624;2022-12-13T02:59:20;101375.07;;;0.95;56.05
63194;BME280;49289;51.670;5.624;2022-12-13T03:01:11;101394.08;;;1.11;56.16
63194;BME280;49289;51.670;5.624;2022-12-13T03:03:11;101377.28;;;0.95;56.16
63194;BME280;49289;51.670;5.624;2022-12-13T03:04:59;101394.56;;;1.05;56.22
63194;BME280;49289;51.670;5.624;2022-12-13T03:06:50;101392.03;;;1.05;56.19
63194;BME280;49289;51.670;5.624;2022-12-13T03:08:41;101373.45;;;0.98;56.10
63194;BME280;49289;51.670;5.624;2022-12-13T03:10:27;101367.38;;;0.95;56.07
63194;BME280;49289;51.670;5.624;2022-12-13T03:12:23;101382.91;;;0.96;56.53
63194;BME280;49289;51.670;5.624;2022-12-13T03:14:10;101367.20;;;0.90;56.37
63194;BME280;49289;51.670;5.624;2022-12-13T03:15:58;101365.61;;;0.85;56.52
63194;BME280;49289;51.670;5.624;2022-12-13T03:17:46;101385.03;;;1.02;56.35
63194;BME280;49289;51.670;5.624;2022-12-13T03:19:33;101387.66;;;0.98;56.48
63194;BME280;49289;51.670;5.624;2022-12-13T03:21:21;101381.66;;;1.01;56.44
63194;BME280;49289;51.670;5.624;2022-12-13T03:23:09;101365.05;;;0.95;56.34
63194;BME280;49289;51.670;5.624;2022-12-13T03:24:57;101387.98;;;1.08;56.30
63194;BME280;49289;51.670;5.624;2022-12-13T03:26:45;101380.80;;;0.99;56.25
63194;BME280;49289;51.670;5.624;2022-12-13T03:28:32;101387.97;;;1.01;56.47
63194;BME280;49289;51.670;5.624;2022-12-13T03:30:20;101370.98;;;0.87;56.55
63194;BME280;49289;51.670;5.624;2022-12-13T03:32:08;101367.42;;;0.89;56.43
63194;BME280;49289;51.670;5.624;2022-12-13T03:33:55;101386.75;;;1.05;56.31
63194;BME280;49289;51.670;5.624;2022-12-13T03:35:43;101370.20;;;0.93;56.26
63194;BME280;49289;51.670;5.624;2022-12-13T03:37:33;101363.16;;;0.80;56.39
63194;BME280;49289;51.670;5.624;2022-12-13T03:39:20;101388.16;;;0.89;56.40
63194;BME280;49289;51.670;5.624;2022-12-13T03:41:08;101366.77;;;0.80;56.18
63194;BME280;49289;51.670;5.624;2022-12-13T03:42:54;101371.30;;;0.80;56.22
63194;BME280;49289;51.670;5.624;2022-12-13T03:45:30;101370.59;;;0.81;56.25
63194;BME280;49289;51.670;5.624;2022-12-13T03:47:18;101393.36;;;0.90;56.21
63194;BME280;49289;51.670;5.624;2022-12-13T03:49:05;101373.20;;;0.83;56.05
63194;BME280;49289;51.670;5.624;2022-12-13T03:50:54;101389.54;;;0.99;56.02
63194;BME280;49289;51.670;5.624;2022-12-13T03:52:41;101386.77;;;0.95;56.13
63194;BME280;49289;51.670;5.624;2022-12-13T03:54:30;101364.74;;;0.76;56.14
63194;BME280;49289;51.670;5.624;2022-12-13T03:56:18;101384.06;;;0.84;56.24
63194;BME280;49289;51.670;5.624;2022-12-13T03:58:05;101385.95;;;0.83;56.13
63194;BME280;49289;51.670;5.624;2022-12-13T03:59:52;101368.41;;;0.72;55.97
63194;BME280;49289;51.670;5.624;2022-12-13T04:01:39;101387.34;;;0.76;56.34
63194;BME280;49289;51.670;5.624;2022-12-13T04:03:26;101386.16;;;0.81;56.21
63194;BME280;49289;51.670;5.624;2022-12-13T04:05:13;101367.53;;;0.73;56.14
63194;BME280;49289;51.670;5.624;2022-12-13T04:07:00;101390.70;;;0.83;56.05
63194;BME280;49289;51.670;5.624;2022-12-13T04:08:48;101383.37;;;0.83;56.27
63194;BME280;49289;51.670;5.624;2022-12-13T04:10:37;101381.95;;;0.77;56.59
63194;BME280;49289;51.670;5.624;2022-12-13T04:12:25;101364.34;;;0.63;56.69
63194;BME280;49289;51.670;5.624;2022-12-13T04:14:13;101389.45;;;0.73;56.85
63194;BME280;49289;51.670;5.624;2022-12-13T04:16:01;101384.06;;;0.84;56.54
63194;BME280;49289;51.670;5.624;2022-12-13T04:17:49;101368.00;;;0.66;56.70
63194;BME280;49289;51.670;5.624;2022-12-13T04:19:37;101364.91;;;0.67;56.47
63194;BME280;49289;51.670;5.624;2022-12-13T04:21:25;101362.81;;;0.67;56.52
63194;BME280;49289;51.670;5.624;2022-12-13T04:23:13;101381.67;;;0.74;56.30
63194;BME280;49289;51.670;5.624;2022-12-13T04:25:03;101376.90;;;0.73;56.47
63194;BME280;49289;51.670;5.624;2022-12-13T04:26:37;101374.54;;;0.79;56.25
63194;BME280;49289;51.670;5.624;2022-12-13T04:28:26;101372.38;;;0.81;56.22
63194;BME280;49289;51.670;5.624;2022-12-13T04:30:17;101353.81;;;0.64;56.28
63194;BME280;49289;51.670;5.624;2022-12-13T04:32:05;101365.42;;;0.71;56.40
63194;BME280;49289;51.670;5.624;2022-12-13T04:33:54;101372.61;;;0.75;56.26
63194;BME280;49289;51.670;5.624;2022-12-13T04:35:44;101359.70;;;0.69;56.49
63194;BME280;49289;51.670;5.624;2022-12-13T04:37:32;101367.11;;;0.80;56.36
63194;BME280;49289;51.670;5.624;2022-12-13T04:39:21;101345.55;;;0.69;56.26
63194;BME280;49289;51.670;5.624;2022-12-13T04:41:16;101343.80;;;0.78;56.10
63194;BME280;49289;51.670;5.624;2022-12-13T04:43:04;101343.21;;;0.72;56.35
63194;BME280;49289;51.670;5.624;2022-12-13T04:44:39;101344.68;;;0.69;56.04
63194;BME280;49289;51.670;5.624;2022-12-13T04:46:28;101367.30;;;0.80;56.02
63194;BME280;49289;51.670;5.624;2022-12-13T04:48:17;101364.84;;;0.81;56.11
63194;BME280;49289;51.670;5.624;2022-12-13T04:50:06;101365.30;;;0.82;56.26
63194;BME280;49289;51.670;5.624;2022-12-13T04:51:56;101362.19;;;0.81;56.30
63194;BME280;49289;51.670;5.624;2022-12-13T04:53:44;101369.84;;;0.84;56.31
63194;BME280;49289;51.670;5.624;2022-12-13T04:55:34;101367.22;;;0.81;56.50
63194;BME280;49289;51.670;5.624;2022-12-13T04:57:23;101363.34;;;0.78;56.45
63194;BME280;49289;51.670;5.624;2022-12-13T05:01:18;101343.59;;;0.67;56.48
63194;BME280;49289;51.670;5.624;2022-12-13T05:03:05;101360.43;;;0.83;56.47
63194;BME280;49289;51.670;5.624;2022-12-13T05:04:53;101367.03;;;0.81;56.41
63194;BME280;49289;51.670;5.624;2022-12-13T05:06:44;101346.23;;;0.75;56.55
63194;BME280;49289;51.670;5.624;2022-12-13T05:10:23;101340.97;;;0.74;56.43
63194;BME280;49289;51.670;5.624;2022-12-13T05:12:12;101362.57;;;0.92;56.26
63194;BME280;49289;51.670;5.624;2022-12-13T05:13:59;101340.48;;;0.74;56.40
63194;BME280;49289;51.670;5.624;2022-12-13T05:15:31;101332.63;;;0.74;56.29
63194;BME280;49289;51.670;5.624;2022-12-13T05:17:18;101335.02;;;0.83;56.17
63194;BME280;49289;51.670;5.624;2022-12-13T05:19:05;101337.42;;;0.76;56.30
63194;BME280;49289;51.670;5.624;2022-12-13T05:20:54;101351.42;;;0.87;56.31
63194;BME280;49289;51.670;5.624;2022-12-13T05:22:43;101352.56;;;0.89;56.26
63194;BME280;49289;51.670;5.624;2022-12-13T05:24:32;101334.21;;;0.76;56.19
63194;BME280;49289;51.670;5.624;2022-12-13T05:26:20;101339.15;;;0.81;56.51
63194;BME280;49289;51.670;5.624;2022-12-13T05:28:08;101354.17;;;0.84;56.60
63194;BME280;49289;51.670;5.624;2022-12-13T05:29:55;101334.49;;;0.82;56.43
63194;BME280;49289;51.670;5.624;2022-12-13T05:31:42;101348.78;;;0.93;56.34
63194;BME280;49289;51.670;5.624;2022-12-13T05:33:29;101348.09;;;0.92;56.36
63194;BME280;49289;51.670;5.624;2022-12-13T05:35:18;101344.55;;;0.91;56.30
63194;BME280;49289;51.670;5.624;2022-12-13T05:37:05;101323.30;;;0.75;56.57
63194;BME280;49289;51.670;5.624;2022-12-13T05:38:52;101327.03;;;0.77;56.66
63194;BME280;49289;51.670;5.624;2022-12-13T05:40:39;101338.97;;;0.90;56.60
63194;BME280;49289;51.670;5.624;2022-12-13T05:42:26;101343.55;;;0.90;56.54
63194;BME280;49289;51.670;5.624;2022-12-13T05:44:13;101318.75;;;0.79;56.56
63194;BME280;49289;51.670;5.624;2022-12-13T05:46:00;101317.53;;;0.72;56.72
63194;BME280;49289;51.670;5.624;2022-12-13T05:47:48;101336.86;;;0.83;56.83
63194;BME280;49289;51.670;5.624;2022-12-13T05:49:36;101314.63;;;0.70;56.86
63194;BME280;49289;51.670;5.624;2022-12-13T05:51:26;101330.39;;;0.83;56.91
63194;BME280;49289;51.670;5.624;2022-12-13T05:53:14;101308.08;;;0.74;57.00
63194;BME280;49289;51.670;5.624;2022-12-13T05:55:05;101312.39;;;0.71;57.12
63194;BME280;49289;51.670;5.624;2022-12-13T05:56:52;101306.92;;;0.78;57.05
63194;BME280;49289;51.670;5.624;2022-12-13T05:58:41;101314.06;;;0.86;57.10
63194;BME280;49289;51.670;5.624;2022-12-13T06:00:29;101306.56;;;0.82;57.17
63194;BME280;49289;51.670;5.624;2022-12-13T06:02:16;101319.97;;;0.95;57.13
63194;BME280;49289;51.670;5.624;2022-12-13T06:04:03;101325.28;;;0.88;56.91
63194;BME280;49289;51.670;5.624;2022-12-13T06:05:50;101317.52;;;0.86;57.05
63194;BME280;49289;51.670;5.624;2022-12-13T06:07:37;101321.81;;;0.86;57.06
63194;BME280;49289;51.670;5.624;2022-12-13T06:09:24;101328.84;;;0.82;57.25
63194;BME280;49289;51.670;5.624;2022-12-13T06:11:11;101326.03;;;0.85;57.22
63194;BME280;49289;51.670;5.624;2022-12-13T06:12:58;101304.73;;;0.81;57.05
63194;BME280;49289;51.670;5.624;2022-12-13T06:14:46;101324.59;;;0.93;56.86
63194;BME280;49289;51.670;5.624;2022-12-13T06:16:33;101307.95;;;0.78;56.90
63194;BME280;49289;51.670;5.624;2022-12-13T06:18:20;101331.42;;;0.88;56.95
63194;BME280;49289;51.670;5.624;2022-12-13T06:20:09;101308.17;;;0.74;56.85
63194;BME280;49289;51.670;5.624;2022-12-13T06:21:57;101315.16;;;0.72;56.79
63194;BME280;49289;51.670;5.624;2022-12-13T06:23:44;101329.48;;;0.85;56.65
63194;BME280;49289;51.670;5.624;2022-12-13T06:25:31;101311.26;;;0.74;56.59
63194;BME280;49289;51.670;5.624;2022-12-13T06:27:18;101327.78;;;0.80;56.63
63194;BME280;49289;51.670;5.624;2022-12-13T06:29:05;101306.64;;;0.62;56.83
63194;BME280;49289;51.670;5.624;2022-12-13T06:30:52;101319.55;;;0.86;56.81
63194;BME280;49289;51.670;5.624;2022-12-13T06:32:39;101322.39;;;0.87;56.77
63194;BME280;49289;51.670;5.624;2022-12-13T06:34:27;101320.80;;;0.88;56.63
63194;BME280;49289;51.670;5.624;2022-12-13T06:36:16;101302.84;;;0.74;56.78
63194;BME280;49289;51.670;5.624;2022-12-13T06:38:03;101324.89;;;0.83;56.73
63194;BME280;49289;51.670;5.624;2022-12-13T06:39:50;101326.97;;;0.90;56.62
63194;BME280;49289;51.670;5.624;2022-12-13T06:41:37;101327.16;;;0.91;56.62
63194;BME280;49289;51.670;5.624;2022-12-13T06:43:24;101327.72;;;0.93;56.50
63194;BME280;49289;51.670;5.624;2022-12-13T06:45:13;101325.08;;;0.90;56.59
63194;BME280;49289;51.670;5.624;2022-12-13T06:48:49;101315.23;;;0.74;56.68
63194;BME280;49289;51.670;5.624;2022-12-13T06:50:36;101336.83;;;0.84;56.73
63194;BME280;49289;51.670;5.624;2022-12-13T06:52:24;101334.86;;;0.83;56.63
63194;BME280;49289;51.670;5.624;2022-12-13T06:54:12;101314.86;;;0.66;56.53
63194;BME280;49289;51.670;5.624;2022-12-13T06:56:01;101338.02;;;0.81;56.66
63194;BME280;49289;51.670;5.624;2022-12-13T06:57:46;101336.27;;;0.82;56.41
63194;BME280;49289;51.670;5.624;2022-12-13T06:59:33;101339.22;;;0.76;56.55
63194;BME280;49289;51.670;5.624;2022-12-13T07:01:20;101333.24;;;0.76;56.60
63194;BME280;49289;51.670;5.624;2022-12-13T07:03:07;101319.80;;;0.64;56.58
63194;BME280;49289;51.670;5.624;2022-12-13T07:04:55;101336.16;;;0.75;56.55
63194;BME280;49289;51.670;5.624;2022-12-13T07:06:44;101318.73;;;0.69;56.57
63194;BME280;49289;51.670;5.624;2022-12-13T07:08:32;101341.64;;;0.83;56.46
63194;BME280;49289;51.670;5.624;2022-12-13T07:10:20;101321.47;;;0.69;56.49
63194;BME280;49289;51.670;5.624;2022-12-13T07:12:09;101342.48;;;0.81;56.31
63194;BME280;49289;51.670;5.624;2022-12-13T07:13:57;101327.41;;;0.65;56.41
63194;BME280;49289;51.670;5.624;2022-12-13T07:15:45;101341.36;;;0.81;56.40
63194;BME280;49289;51.670;5.624;2022-12-13T07:17:33;101325.58;;;0.66;56.35
63194;BME280;49289;51.670;5.624;2022-12-13T07:19:21;101322.13;;;0.63;56.22
63194;BME280;49289;51.670;5.624;2022-12-13T07:21:11;101340.44;;;0.74;56.10
63194;BME280;49289;51.670;5.624;2022-12-13T07:22:58;101328.18;;;0.57;56.27
63194;BME280;49289;51.670;5.624;2022-12-13T07:24:47;101316.98;;;0.54;56.26
63194;BME280;49289;51.670;5.624;2022-12-13T07:26:34;101341.55;;;0.69;56.22
63194;BME280;49289;51.670;5.624;2022-12-13T07:28:21;101321.95;;;0.40;56.65
63194;BME280;49289;51.670;5.624;2022-12-13T07:30:09;101328.11;;;0.43;56.55
63194;BME280;49289;51.670;5.624;2022-12-13T07:31:57;101328.77;;;0.46;56.54
63194;BME280;49289;51.670;5.624;2022-12-13T07:33:45;101328.77;;;0.45;56.49
63194;BME280;49289;51.670;5.624;2022-12-13T07:35:32;101323.40;;;0.34;56.65
63194;BME280;49289;51.670;5.624;2022-12-13T07:37:20;101346.10;;;0.49;56.59
63194;BME280;49289;51.670;5.624;2022-12-13T07:39:07;101336.82;;;0.39;56.48
63194;BME280;49289;51.670;5.624;2022-12-13T07:40:54;101352.48;;;0.60;56.47
63194;BME280;49289;51.670;5.624;2022-12-13T07:42:41;101350.68;;;0.62;56.36
63194;BME280;49289;51.670;5.624;2022-12-13T07:44:28;101349.17;;;0.62;56.41
63194;BME280;49289;51.670;5.624;2022-12-13T07:46:17;101343.38;;;0.60;56.43
63194;BME280;49289;51.670;5.624;2022-12-13T07:48:07;101330.61;;;0.61;56.33
63194;BME280;49289;51.670;5.624;2022-12-13T07:49:56;101348.87;;;0.70;56.46
63194;BME280;49289;51.670;5.624;2022-12-13T07:51:45;101350.01;;;0.66;56.47
63194;BME280;49289;51.670;5.624;2022-12-13T07:53:33;101355.05;;;0.62;56.95
63194;BME280;49289;51.670;5.624;2022-12-13T07:55:21;101353.92;;;0.70;56.86
63194;BME280;49289;51.670;5.624;2022-12-13T07:57:08;101353.96;;;0.73;56.83
63194;BME280;49289;51.670;5.624;2022-12-13T07:58:55;101353.13;;;0.75;56.71
63194;BME280;49289;51.670;5.624;2022-12-13T08:00:42;101357.83;;;0.74;56.58
63194;BME280;49289;51.670;5.624;2022-12-13T08:02:29;101355.16;;;0.79;56.63
63194;BME280;49289;51.670;5.624;2022-12-13T08:04:16;101341.30;;;0.71;56.75
63194;BME280;49289;51.670;5.624;2022-12-13T08:06:10;101343.24;;;0.79;56.76
63194;BME280;49289;51.670;5.624;2022-12-13T08:07:58;101359.27;;;0.90;57.08
63194;BME280;49289;51.670;5.624;2022-12-13T08:09:46;101338.60;;;0.77;57.21
63194;BME280;49289;51.670;5.624;2022-12-13T08:11:33;101340.22;;;0.84;57.17
63194;BME280;49289;51.670;5.624;2022-12-13T08:13:20;101357.92;;;1.03;57.13
63194;BME280;49289;51.670;5.624;2022-12-13T08:15:07;101362.58;;;1.04;57.21
63194;BME280;49289;51.670;5.624;2022-12-13T08:16:55;101358.55;;;1.01;57.62
63194;BME280;49289;51.670;5.624;2022-12-13T08:18:43;101353.61;;;0.99;57.90
63194;BME280;49289;51.670;5.624;2022-12-13T08:20:31;101346.02;;;1.00;58.02
63194;BME280;49289;51.670;5.624;2022-12-13T08:22:19;101326.80;;;0.95;58.01
63194;BME280;49289;51.670;5.624;2022-12-13T08:24:08;101331.56;;;1.06;57.74
63194;BME280;49289;51.670;5.624;2022-12-13T08:25:55;101345.00;;;1.16;57.90
63194;BME280;49289;51.670;5.624;2022-12-13T08:27:43;101344.41;;;1.13;58.01
63194;BME280;49289;51.670;5.624;2022-12-13T08:29:32;101342.09;;;1.25;57.77
63194;BME280;49289;51.670;5.624;2022-12-13T08:31:20;101322.06;;;1.12;57.87
63194;BME280;49289;51.670;5.624;2022-12-13T08:33:08;101330.11;;;1.14;58.04
63194;BME280;49289;51.670;5.624;2022-12-13T08:34:56;101353.17;;;1.31;58.07
63194;BME280;49289;51.670;5.624;2022-12-13T08:36:44;101324.48;;;1.18;58.32
63194;BME280;49289;51.670;5.624;2022-12-13T08:38:32;101350.53;;;1.50;58.05
63194;BME280;49289;51.670;5.624;2022-12-13T08:40:21;101355.05;;;1.58;57.72
63194;BME280;49289;51.670;5.624;2022-12-13T08:42:09;101354.91;;;1.63;57.86
63194;BME280;49289;51.670;5.624;2022-12-13T08:43:56;101351.16;;;1.78;57.65
63194;BME280;49289;51.670;5.624;2022-12-13T08:45:43;101356.89;;;1.77;57.69
63194;BME280;49289;51.670;5.624;2022-12-13T08:47:30;101355.73;;;1.67;57.72
63194;BME280;49289;51.670;5.624;2022-12-13T08:49:17;101359.25;;;1.82;57.83
63194;BME280;49289;51.670;5.624;2022-12-13T08:51:06;101341.88;;;1.76;57.71
63194;BME280;49289;51.670;5.624;2022-12-13T08:52:53;101359.19;;;1.80;58.02
63194;BME280;49289;51.670;5.624;2022-12-13T08:54:41;101341.58;;;1.86;57.73
63194;BME280;49289;51.670;5.624;2022-12-13T08:56:29;101351.63;;;1.96;57.44
63194;BME280;49289;51.670;5.624;2022-12-13T08:58:17;101340.66;;;1.90;57.54
63194;BME280;49289;51.670;5.624;2022-12-13T09:00:07;101360.65;;;2.08;57.36
63194;BME280;49289;51.670;5.624;2022-12-13T09:01:54;101349.36;;;1.96;57.59
63194;BME280;49289;51.670;5.624;2022-12-13T09:03:42;101355.65;;;1.95;57.74
63194;BME280;49289;51.670;5.624;2022-12-13T09:05:31;101368.75;;;2.19;57.45
63194;BME280;49289;51.670;5.624;2022-12-13T09:07:19;101359.16;;;2.31;57.34
63194;BME280;49289;51.670;5.624;2022-12-13T09:09:07;101380.15;;;2.29;57.91
63194;BME280;49289;51.670;5.624;2022-12-13T09:11:00;101378.80;;;2.60;57.55
63194;BME280;49289;51.670;5.624;2022-12-13T09:12:47;101359.20;;;2.79;56.94
63194;BME280;49289;51.670;5.624;2022-12-13T09:14:34;101375.33;;;2.99;56.58
63194;BME280;49289;51.670;5.624;2022-12-13T09:16:22;101348.79;;;2.87;56.51
63194;BME280;49289;51.670;5.624;2022-12-13T09:18:10;101343.84;;;3.03;56.10
63194;BME280;49289;51.670;5.624;2022-12-13T09:19:58;101366.24;;;3.24;55.96
63194;BME280;49289;51.670;5.624;2022-12-13T09:21:47;101350.45;;;3.04;55.57
63194;BME280;49289;51.670;5.624;2022-12-13T09:23:35;101349.33;;;3.11;55.85
63194;BME280;49289;51.670;5.624;2022-12-13T09:25:23;101367.28;;;3.31;55.77
63194;BME280;49289;51.670;5.624;2022-12-13T09:27:10;101368.09;;;3.15;55.90
63194;BME280;49289;51.670;5.624;2022-12-13T09:28:57;101367.23;;;3.25;55.75
63194;BME280;49289;51.670;5.624;2022-12-13T09:30:29;101367.91;;;3.18;55.83
63194;BME280;49289;51.670;5.624;2022-12-13T09:32:16;101355.16;;;3.13;55.69
63194;BME280;49289;51.670;5.624;2022-12-13T09:34:04;101358.21;;;2.88;56.05
63194;BME280;49289;51.670;5.624;2022-12-13T09:35:53;101359.08;;;2.92;56.24
63194;BME280;49289;51.670;5.624;2022-12-13T09:37:41;101369.02;;;3.13;56.17
63194;BME280;49289;51.670;5.624;2022-12-13T09:39:28;101370.92;;;3.25;55.80
63194;BME280;49289;51.670;5.624;2022-12-13T09:41:19;101352.90;;;3.02;55.82
63194;BME280;49289;51.670;5.624;2022-12-13T09:43:06;101356.23;;;2.99;56.09
63194;BME280;49289;51.670;5.624;2022-12-13T09:44:55;101364.50;;;3.20;55.98